Varnadiep — PBIB — position and weather

sailwx.info

Track history (hours):
 
Tides and Currents Weather Stations Pressure Air Temp Water Temp Dewpoint Dewpoint Depression Visibility Wind Speed Wind Dir Waves Ship Positions

Varnadiep

Last reported at 2014-Sep-29 23:32 UTC. Time now 2014-Oct-01 08:14 UTC.
Position N 37°08' E 004°52'.

Length 118 m; draft 7.4 m.

Type: Cargo ship. MMSI: 244729000.

Date/timePositionNaut miles runAvg speedWind from/ knotsBaromVisibWave heightAir tempDewpointWater temp
2014-Sep-29 23:32N 37°08' E 004°52'7911.2
2014-Sep-29 16:29N 37°04' E 003°12'2311.8
2014-Sep-29 14:33N 37°01' E 002°44'39310.9
2014-Sep-28 02:21N 35°58' W 005°18'23410.7
2014-Sep-27 04:26N 37°32' W 009°46'1011.7
2014-Sep-27 03:33N 37°42' W 009°48'1211.6
2014-Sep-27 02:33N 37°53' W 009°51'1312.0
2014-Sep-27 01:28N 38°06' W 009°55'  
2014-Sep-23 21:09N 50°27' W 000°25'2710.4
2014-Sep-23 18:33N 50°35' E 000°16'1212.0
2014-Sep-23 17:33N 50°39' E 000°34'1313.0
2014-Sep-23 16:33N 50°46' E 000°51'2512.4
2014-Sep-23 14:34N 51°01' E 001°22'1110.6
2014-Sep-23 13:33N 51°08' E 001°35'10 9.6
2014-Sep-23 12:34N 51°14' E 001°46'1010.1
2014-Sep-23 11:33N 51°23' E 001°54'1111.5
2014-Sep-23 10:33N 51°33' E 002°04'1512.7
2014-Sep-23 09:25N 51°44' E 002°20'14312.1
2014-Sep-22 21:33N 53°38' E 004°41'1312.5
2014-Sep-22 20:33N 53°48' E 004°55'1212.0
2014-Sep-22 19:33N 53°57' E 005°08'9 9.0
2014-Sep-22 18:33N 53°53' E 005°22'9 8.8
2014-Sep-22 17:34N 53°48' E 005°34'6 6.2
2014-Sep-22 16:33N 53°48' E 005°45'1211.9
2014-Sep-22 15:33N 53°58' E 005°54'7 6.8
2014-Sep-22 14:32N 54°01' E 006°05'52 4.7
2014-Sep-22 03:33N 54°01' E 007°33'8 7.6
2014-Sep-22 02:33N 54°02' E 007°46'7 6.6
2014-Sep-22 01:33N 54°02' E 007°57'8 8.2
2014-Sep-22 00:34N 54°01' E 008°11'8 8.4
2014-Sep-21 23:34N 53°59' E 008°25'1010.0
2014-Sep-21 22:33N 53°55' E 008°41'9 9.1
2014-Sep-21 21:33N 53°50' E 008°53'9 9.3
2014-Sep-21 20:33N 53°53' E 009°08'0 0.2
2014-Sep-21 19:32N 53°54' E 009°09'72 6.0
2014-Sep-21 07:23N 54°35' E 010°50'1012.5
2014-Sep-21 06:33N 54°36' E 011°08'1212.3
2014-Sep-21 05:33N 54°31' E 011°28'1212.0
2014-Sep-21 04:33N 54°26' E 011°46'1212.2
2014-Sep-21 03:33N 54°27' E 012°07'1111.3
2014-Sep-21 02:33N 54°38' E 012°15'1212.2
2014-Sep-21 01:33N 54°44' E 012°33'1212.1
2014-Sep-21 00:33N 54°50' E 012°51'1212.3
2014-Sep-20 23:33N 54°54' E 013°11'1212.3
2014-Sep-20 22:33N 54°58' E 013°32'1212.2
2014-Sep-20 21:33N 55°02' E 013°52'1212.1
2014-Sep-20 20:33N 55°08' E 014°09'1312.3
2014-Sep-20 19:30N 55°18' E 014°23'1312.4
2014-Sep-20 18:29N 55°28' E 014°37'1312.3
2014-Sep-20 17:25N 55°34' E 014°58'1312.2
2014-Sep-20 16:20N 55°41' E 015°18'3512.5
2014-Sep-20 13:33N 55°59' E 016°11'2612.6
2014-Sep-20 11:29N 56°12' E 016°51'1212.6
2014-Sep-20 10:33N 56°19' E 017°08'1312.6
2014-Sep-20 09:32N 56°27' E 017°27'1212.4
2014-Sep-20 08:32N 56°34' E 017°45'1212.4
2014-Sep-20 07:33N 56°41' E 018°03'1312.4
2014-Sep-20 06:33N 56°49' E 018°21'1312.3
2014-Sep-20 05:28N 56°59' E 018°37'1512.2
2014-Sep-20 04:14N 57°11' E 018°53'812.1
2014-Sep-20 03:34N 57°18' E 019°02'  
Track history (hours):
 
Tides and Currents Weather Stations Pressure Air Temp Water Temp Dewpoint Dewpoint Depression Visibility Wind Speed Wind Dir Waves Ship Positions

Varnadiep

Last reported at 2014-Sep-29 23:32 UTC. Time now 2014-Oct-01 08:14 UTC.
Position N 37°08' E 004°52'.

Length 118 m; draft 7.4 m.

Type: Cargo ship. MMSI: 244729000.

Date/timePositionNaut miles runAvg speedWind from/ knotsBaromVisibWave heightAir tempDewpointWater temp
2014-Sep-29 23:32N 37°08' E 004°52'7911.2
2014-Sep-29 16:29N 37°04' E 003°12'2311.8
2014-Sep-29 14:33N 37°01' E 002°44'39310.9
2014-Sep-28 02:21N 35°58' W 005°18'23410.7
2014-Sep-27 04:26N 37°32' W 009°46'1011.7
2014-Sep-27 03:33N 37°42' W 009°48'1211.6
2014-Sep-27 02:33N 37°53' W 009°51'1312.0
2014-Sep-27 01:28N 38°06' W 009°55'  
2014-Sep-23 21:09N 50°27' W 000°25'2710.4
2014-Sep-23 18:33N 50°35' E 000°16'1212.0
2014-Sep-23 17:33N 50°39' E 000°34'1313.0
2014-Sep-23 16:33N 50°46' E 000°51'2512.4
2014-Sep-23 14:34N 51°01' E 001°22'1110.6
2014-Sep-23 13:33N 51°08' E 001°35'10 9.6
2014-Sep-23 12:34N 51°14' E 001°46'1010.1
2014-Sep-23 11:33N 51°23' E 001°54'1111.5
2014-Sep-23 10:33N 51°33' E 002°04'1512.7
2014-Sep-23 09:25N 51°44' E 002°20'14312.1
2014-Sep-22 21:33N 53°38' E 004°41'1312.5
2014-Sep-22 20:33N 53°48' E 004°55'1212.0
2014-Sep-22 19:33N 53°57' E 005°08'9 9.0
2014-Sep-22 18:33N 53°53' E 005°22'9 8.8
2014-Sep-22 17:34N 53°48' E 005°34'6 6.2
2014-Sep-22 16:33N 53°48' E 005°45'1211.9
2014-Sep-22 15:33N 53°58' E 005°54'7 6.8
2014-Sep-22 14:32N 54°01' E 006°05'52 4.7
2014-Sep-22 03:33N 54°01' E 007°33'8 7.6
2014-Sep-22 02:33N 54°02' E 007°46'7 6.6
2014-Sep-22 01:33N 54°02' E 007°57'8 8.2
2014-Sep-22 00:34N 54°01' E 008°11'8 8.4
2014-Sep-21 23:34N 53°59' E 008°25'1010.0
2014-Sep-21 22:33N 53°55' E 008°41'9 9.1
2014-Sep-21 21:33N 53°50' E 008°53'9 9.3
2014-Sep-21 20:33N 53°53' E 009°08'0 0.2
2014-Sep-21 19:32N 53°54' E 009°09'72 6.0
2014-Sep-21 07:23N 54°35' E 010°50'1012.5
2014-Sep-21 06:33N 54°36' E 011°08'1212.3
2014-Sep-21 05:33N 54°31' E 011°28'1212.0
2014-Sep-21 04:33N 54°26' E 011°46'1212.2
2014-Sep-21 03:33N 54°27' E 012°07'1111.3
2014-Sep-21 02:33N 54°38' E 012°15'1212.2
2014-Sep-21 01:33N 54°44' E 012°33'1212.1
2014-Sep-21 00:33N 54°50' E 012°51'1212.3
2014-Sep-20 23:33N 54°54' E 013°11'1212.3
2014-Sep-20 22:33N 54°58' E 013°32'1212.2
2014-Sep-20 21:33N 55°02' E 013°52'1212.1
2014-Sep-20 20:33N 55°08' E 014°09'1312.3
2014-Sep-20 19:30N 55°18' E 014°23'1312.4
2014-Sep-20 18:29N 55°28' E 014°37'1312.3
2014-Sep-20 17:25N 55°34' E 014°58'1312.2
2014-Sep-20 16:20N 55°41' E 015°18'3512.5
2014-Sep-20 13:33N 55°59' E 016°11'2612.6
2014-Sep-20 11:29N 56°12' E 016°51'1212.6
2014-Sep-20 10:33N 56°19' E 017°08'1312.6
2014-Sep-20 09:32N 56°27' E 017°27'1212.4
2014-Sep-20 08:32N 56°34' E 017°45'1212.4
2014-Sep-20 07:33N 56°41' E 018°03'1312.4
2014-Sep-20 06:33N 56°49' E 018°21'1312.3
2014-Sep-20 05:28N 56°59' E 018°37'1512.2
2014-Sep-20 04:14N 57°11' E 018°53'812.1
2014-Sep-20 03:34N 57°18' E 019°02'  

Dump ship's entire track history